Time;durP1;ratioP1;P1;durP2;ratioP2;P2;SDS_P1;SDS_P2;PMS_P1;PMS_P2;Temp;Humidity;BMP_temperature;BMP_pressure;BME280_temperature;BME280_humidity;BME280_pressure;Samples;Min_cycle;Max_cycle;Signal;HPM_P1;HPM_P2
2021/06/30 00:00:57;;;;;;;8.23;6.90;;;;;;;;;;5010122;28;20237;-66
2021/06/30 00:03:23;;;;;;;8.93;7.60;;;;;;;;;;5019515;28;20201;-66
2021/06/30 00:05:48;;;;;;;8.40;7.35;;;;;;;;;;5011953;28;20186;-66
2021/06/30 00:08:14;;;;;;;10.75;7.93;;;;;;;;;;5018802;28;20187;-66
2021/06/30 00:10:41;;;;;;;11.88;8.38;;;;;;;;;;5012318;28;20174;-67
2021/06/30 00:13:07;;;;;;;10.60;8.32;;;;;;;;;;5014244;28;20202;-67
2021/06/30 00:15:32;;;;;;;11.27;8.30;;;;;;;;;;5015349;28;20194;-67
2021/06/30 00:17:58;;;;;;;10.48;7.82;;;;;;;;;;5022064;28;20603;-67
2021/06/30 00:20:23;;;;;;;10.35;7.72;;;;;;;;;;5010476;28;20248;-67
2021/06/30 00:22:49;;;;;;;10.60;7.07;;;;;;;;;;5017007;28;20189;-67
2021/06/30 00:25:15;;;;;;;9.52;7.68;;;;;;;;;;5005935;28;20557;-67
2021/06/30 00:27:43;;;;;;;10.02;7.38;;;;;;;;;;5002476;28;20206;-67
2021/06/30 00:30:10;;;;;;;12.13;8.35;;;;;;;;;;5012736;28;20214;-67
2021/06/30 00:32:35;;;;;;;9.82;8.30;;;;;;;;;;5019722;28;20197;-67
2021/06/30 00:35:00;;;;;;;9.02;8.00;;;;;;;;;;5019719;28;20182;-67
2021/06/30 00:37:26;;;;;;;10.75;8.10;;;;;;;;;;5013842;28;20633;-67
2021/06/30 00:39:51;;;;;;;8.02;7.13;;;;;;;;;;5020777;28;20222;-67
2021/06/30 00:42:16;;;;;;;8.57;7.00;;;;;;;;;;5012818;28;20185;-67
2021/06/30 00:44:42;;;;;;;8.27;6.43;;;;;;;;;;5021269;28;20236;-67
2021/06/30 00:47:08;;;;;;;7.43;6.65;;;;;;;;;;5015178;28;20194;-67
2021/06/30 00:49:33;;;;;;;7.60;6.50;;;;;;;;;;5026809;28;20747;-67
2021/06/30 00:51:58;;;;;;;7.13;6.43;;;;;;;;;;5014289;28;20244;-67
2021/06/30 00:54:24;;;;;;;7.28;6.50;;;;;;;;;;5025941;28;20182;-67
2021/06/30 00:56:49;;;;;;;7.13;6.20;;;;;;;;;;5015622;28;20566;-67
2021/06/30 00:59:14;;;;;;;7.20;6.43;;;;;;;;;;5024177;28;20197;-67
2021/06/30 01:01:40;;;;;;;7.32;6.65;;;;;;;;;;5016407;28;20665;-67
2021/06/30 01:04:06;;;;;;;7.53;6.72;;;;;;;;;;5024008;28;20215;-67
2021/06/30 01:06:31;;;;;;;7.88;7.07;;;;;;;;;;5021216;28;20185;-67
2021/06/30 01:09:03;;;;;;;9.90;6.70;;;;;;;;;;5018792;28;20328;-67
2021/06/30 01:11:29;;;;;;;7.55;6.63;;;;;;;;;;5025386;28;20265;-67
2021/06/30 01:13:55;;;;;;;8.90;7.18;;;;;;;;;;5017409;28;20190;-67
2021/06/30 01:16:20;;;;;;;7.65;6.85;;;;;;;;;;5023427;28;20204;-67
2021/06/30 01:18:45;;;;;;;9.18;7.50;;;;;;;;;;5015296;28;20200;-67
2021/06/30 01:21:12;;;;;;;7.82;7.03;;;;;;;;;;5026828;28;20265;-67
2021/06/30 01:23:39;;;;;;;9.75;7.43;;;;;;;;;;5013066;28;20189;-67
2021/06/30 01:26:04;;;;;;;10.20;7.57;;;;;;;;;;5021932;28;20529;-67
2021/06/30 01:28:30;;;;;;;8.50;7.45;;;;;;;;;;5015938;28;20201;-67
2021/06/30 01:30:55;;;;;;;8.43;7.53;;;;;;;;;;5030865;28;20232;-67
2021/06/30 01:33:22;;;;;;;10.23;7.45;;;;;;;;;;5016909;28;20197;-68
2021/06/30 01:35:47;;;;;;;7.25;6.53;;;;;;;;;;5029741;28;20265;-67
2021/06/30 01:38:13;;;;;;;11.15;6.90;;;;;;;;;;5023673;28;20273;-67
2021/06/30 01:40:40;;;;;;;8.50;7.18;;;;;;;;;;5021408;28;20592;-67
2021/06/30 01:43:06;;;;;;;7.82;6.78;;;;;;;;;;5025911;28;20596;-67
2021/06/30 01:45:32;;;;;;;8.90;7.70;;;;;;;;;;5016133;28;20222;-67
2021/06/30 01:47:57;;;;;;;9.27;7.10;;;;;;;;;;5025044;28;20190;-67
2021/06/30 01:50:23;;;;;;;8.40;7.53;;;;;;;;;;5020228;28;20547;-67
2021/06/30 01:52:48;;;;;;;10.25;7.38;;;;;;;;;;5027554;28;20189;-67
2021/06/30 01:55:15;;;;;;;12.32;8.07;;;;;;;;;;5020681;28;20189;-67
2021/06/30 01:57:46;;;;;;;8.60;7.72;;;;;;;;;;5022999;28;20244;-67
2021/06/30 02:00:15;;;;;;;7.60;6.78;;;;;;;;;;5019581;28;20206;-67
2021/06/30 02:02:41;;;;;;;8.18;7.07;;;;;;;;;;5026017;28;20722;-67
2021/06/30 02:05:09;;;;;;;8.30;7.50;;;;;;;;;;5017539;28;20301;-67
2021/06/30 02:07:35;;;;;;;9.10;7.35;;;;;;;;;;5027432;28;20898;-67
2021/06/30 02:10:03;;;;;;;9.02;8.13;;;;;;;;;;5026292;28;20186;-67
2021/06/30 02:12:29;;;;;;;8.10;7.30;;;;;;;;;;5016683;28;20182;-67
2021/06/30 02:14:54;;;;;;;9.18;8.18;;;;;;;;;;5021357;28;20538;-67
2021/06/30 02:17:19;;;;;;;8.95;7.97;;;;;;;;;;5021399;28;20363;-67
2021/06/30 02:19:48;;;;;;;9.00;8.10;;;;;;;;;;5024085;28;20183;-67
2021/06/30 02:22:13;;;;;;;10.43;8.15;;;;;;;;;;5016979;28;20189;-67
2021/06/30 02:24:39;;;;;;;9.70;8.05;;;;;;;;;;5021510;28;20633;-67
2021/06/30 02:27:04;;;;;;;10.32;7.88;;;;;;;;;;5016013;28;20190;-67
2021/06/30 02:29:30;;;;;;;9.02;8.13;;;;;;;;;;5025462;28;20186;-68
2021/06/30 02:31:55;;;;;;;8.80;7.95;;;;;;;;;;5019623;28;20248;-67
2021/06/30 02:34:20;;;;;;;11.18;8.95;;;;;;;;;;5025592;28;20174;-67
2021/06/30 02:36:46;;;;;;;11.40;9.32;;;;;;;;;;5020042;28;20211;-67
2021/06/30 02:39:11;;;;;;;10.18;9.05;;;;;;;;;;5025327;28;20720;-67
2021/06/30 02:41:36;;;;;;;10.93;9.05;;;;;;;;;;5008462;28;20281;-67
2021/06/30 02:44:02;;;;;;;10.23;9.23;;;;;;;;;;5016980;28;20237;-67
2021/06/30 02:46:28;;;;;;;10.30;9.30;;;;;;;;;;5048879;28;20242;-67
2021/06/30 02:48:53;;;;;;;11.80;10.30;;;;;;;;;;5039271;28;20511;-67
2021/06/30 02:51:18;;;;;;;10.43;9.43;;;;;;;;;;5045912;28;20189;-67
2021/06/30 02:53:44;;;;;;;11.88;10.35;;;;;;;;;;5031938;28;20223;-67
2021/06/30 02:56:09;;;;;;;11.40;10.18;;;;;;;;;;5039451;28;20181;-67
2021/06/30 02:58:35;;;;;;;12.02;10.63;;;;;;;;;;5034858;28;20689;-67
2021/06/30 03:01:00;;;;;;;14.88;10.63;;;;;;;;;;5044103;28;20327;-67
2021/06/30 03:03:25;;;;;;;12.00;9.95;;;;;;;;;;5039287;28;20201;-67
2021/06/30 03:05:51;;;;;;;12.70;9.98;;;;;;;;;;5045298;28;20691;-67
2021/06/30 03:08:16;;;;;;;13.38;11.18;;;;;;;;;;5046921;28;20185;-67
2021/06/30 03:10:41;;;;;;;12.65;10.80;;;;;;;;;;5040623;28;20201;-67
2021/06/30 03:13:07;;;;;;;12.65;11.15;;;;;;;;;;5053616;28;20193;-66
2021/06/30 03:15:32;;;;;;;12.38;11.15;;;;;;;;;;5031617;28;20192;-66
2021/06/30 03:17:58;;;;;;;14.50;12.10;;;;;;;;;;5040553;28;20208;-66
2021/06/30 03:20:23;;;;;;;15.07;11.50;;;;;;;;;;5030569;28;20235;-67
2021/06/30 03:22:49;;;;;;;16.77;13.63;;;;;;;;;;5048051;28;20522;-65
2021/06/30 03:25:14;;;;;;;15.85;13.32;;;;;;;;;;5031304;28;20205;-65
2021/06/30 03:27:41;;;;;;;16.65;13.18;;;;;;;;;;5045525;28;20181;-67
2021/06/30 03:30:09;;;;;;;19.40;14.15;;;;;;;;;;5032910;28;20200;-67
2021/06/30 03:32:35;;;;;;;19.13;14.13;;;;;;;;;;5040966;28;20181;-67
2021/06/30 03:35:00;;;;;;;18.85;14.45;;;;;;;;;;5033398;28;20185;-68
2021/06/30 03:37:26;;;;;;;16.63;14.82;;;;;;;;;;5040402;28;20181;-67
2021/06/30 03:39:51;;;;;;;20.35;15.80;;;;;;;;;;5032211;28;22141;-66
2021/06/30 03:42:17;;;;;;;18.88;15.35;;;;;;;;;;5041742;28;20268;-66
2021/06/30 03:44:42;;;;;;;20.30;15.32;;;;;;;;;;5033019;28;20301;-66
2021/06/30 03:47:08;;;;;;;18.75;15.32;;;;;;;;;;5014516;28;20204;-66
2021/06/30 03:49:33;;;;;;;20.50;15.30;;;;;;;;;;5020115;28;20201;-65
2021/06/30 03:51:59;;;;;;;19.98;15.23;;;;;;;;;;5015476;28;20190;-65
2021/06/30 03:54:24;;;;;;;20.58;16.52;;;;;;;;;;5019720;28;20240;-66
2021/06/30 03:56:51;;;;;;;22.10;15.57;;;;;;;;;;5013955;28;20197;-66
2021/06/30 03:59:17;;;;;;;18.65;15.60;;;;;;;;;;5014248;28;20195;-66
2021/06/30 04:01:42;;;;;;;18.52;15.30;;;;;;;;;;5015606;28;20213;-66
2021/06/30 04:04:11;;;;;;;17.33;15.43;;;;;;;;;;5021790;28;20348;-66
2021/06/30 04:06:38;;;;;;;21.30;15.15;;;;;;;;;;5011957;28;20557;-66
2021/06/30 04:09:04;;;;;;;18.63;15.75;;;;;;;;;;5018067;28;20195;-66
2021/06/30 04:11:29;;;;;;;18.38;15.27;;;;;;;;;;5013722;28;20269;-66
2021/06/30 04:13:55;;;;;;;19.58;15.73;;;;;;;;;;5024055;28;20273;-66
2021/06/30 04:16:20;;;;;;;20.85;15.07;;;;;;;;;;5018348;28;20194;-66
2021/06/30 04:18:45;;;;;;;21.52;15.68;;;;;;;;;;5008415;28;20539;-66
2021/06/30 04:21:11;;;;;;;20.58;14.80;;;;;;;;;;5020924;28;20190;-65
2021/06/30 04:23:36;;;;;;;26.83;16.75;;;;;;;;;;5014573;28;20201;-65
2021/06/30 04:26:03;;;;;;;23.48;16.48;;;;;;;;;;5021091;28;20185;-65
2021/06/30 04:28:29;;;;;;;26.00;16.55;;;;;;;;;;5011379;28;20712;-66
2021/06/30 04:30:54;;;;;;;26.42;17.52;;;;;;;;;;5020787;28;20315;-66
2021/06/30 04:33:19;;;;;;;29.33;18.48;;;;;;;;;;5008065;28;20190;-66
2021/06/30 04:35:45;;;;;;;29.83;17.73;;;;;;;;;;5021035;28;20197;-65
2021/06/30 04:38:10;;;;;;;26.45;17.15;;;;;;;;;;5011959;28;20186;-66
2021/06/30 04:40:35;;;;;;;30.27;18.67;;;;;;;;;;5021019;28;20557;-66
2021/06/30 04:43:01;;;;;;;29.17;17.85;;;;;;;;;;4995438;28;20625;-66
2021/06/30 04:45:26;;;;;;;35.28;19.35;;;;;;;;;;5026814;28;20244;-66
2021/06/30 04:47:52;;;;;;;29.67;18.33;;;;;;;;;;5020849;28;20201;-66
2021/06/30 04:50:17;;;;;;;30.02;17.85;;;;;;;;;;5008808;28;20183;-66
2021/06/30 04:52:42;;;;;;;27.25;17.55;;;;;;;;;;5019811;28;20205;-66
2021/06/30 04:55:08;;;;;;;30.77;19.58;;;;;;;;;;5007959;28;20259;-66
2021/06/30 04:57:35;;;;;;;32.22;19.83;;;;;;;;;;5019619;28;20273;-67
2021/06/30 05:00:00;;;;;;;32.65;19.90;;;;;;;;;;5010989;28;20648;-66
2021/06/30 05:02:25;;;;;;;35.55;19.25;;;;;;;;;;5021232;28;20332;-65
2021/06/30 05:04:51;;;;;;;31.35;19.80;;;;;;;;;;5015879;28;20565;-65
2021/06/30 05:07:16;;;;;;;33.72;18.85;;;;;;;;;;5021200;28;20619;-66
2021/06/30 05:09:41;;;;;;;33.28;20.20;;;;;;;;;;5017910;28;20190;-66
2021/06/30 05:12:07;;;;;;;35.25;20.23;;;;;;;;;;5021976;28;20194;-66
2021/06/30 05:14:32;;;;;;;31.70;18.35;;;;;;;;;;5017806;28;20312;-66
2021/06/30 05:16:58;;;;;;;35.75;19.50;;;;;;;;;;5022042;28;20299;-65
2021/06/30 05:19:23;;;;;;;38.97;19.75;;;;;;;;;;5023123;28;20190;-65
2021/06/30 05:21:49;;;;;;;37.92;19.83;;;;;;;;;;5011115;28;20566;-66
2021/06/30 05:24:14;;;;;;;35.38;19.60;;;;;;;;;;5024030;28;20661;-65
2021/06/30 05:26:40;;;;;;;30.90;19.58;;;;;;;;;;5015400;28;20186;-67
2021/06/30 05:29:05;;;;;;;34.25;20.10;;;;;;;;;;5024578;28;20178;-66
2021/06/30 05:31:30;;;;;;;35.75;20.67;;;;;;;;;;5015504;28;20252;-66
2021/06/30 05:33:56;;;;;;;32.58;19.88;;;;;;;;;;5023450;28;20182;-65
2021/06/30 05:36:21;;;;;;;33.28;19.67;;;;;;;;;;5012789;28;20285;-65
2021/06/30 05:38:46;;;;;;;36.55;20.58;;;;;;;;;;5027036;28;20233;-65
2021/06/30 05:41:12;;;;;;;37.58;20.88;;;;;;;;;;5011819;28;20187;-66
2021/06/30 05:43:38;;;;;;;34.13;20.00;;;;;;;;;;5023656;28;20622;-66
2021/06/30 05:46:04;;;;;;;36.55;21.48;;;;;;;;;;5023418;28;20599;-65
2021/06/30 05:48:30;;;;;;;42.75;20.50;;;;;;;;;;5019975;28;20193;-65
2021/06/30 05:50:55;;;;;;;38.80;20.83;;;;;;;;;;5022455;28;20589;-65
2021/06/30 05:53:21;;;;;;;37.00;21.33;;;;;;;;;;5012235;28;20190;-65
2021/06/30 05:55:46;;;;;;;37.25;22.08;;;;;;;;;;5024832;28;20186;-65
2021/06/30 05:58:12;;;;;;;36.63;20.77;;;;;;;;;;5015403;28;20343;-65
2021/06/30 06:00:37;;;;;;;38.08;20.35;;;;;;;;;;5025104;28;20255;-65
2021/06/30 06:03:02;;;;;;;35.05;20.45;;;;;;;;;;5012888;28;20201;-65
2021/06/30 06:05:28;;;;;;;38.55;21.77;;;;;;;;;;5017598;28;20213;-65
2021/06/30 06:07:53;;;;;;;33.80;20.50;;;;;;;;;;5014229;28;20178;-65
2021/06/30 06:10:19;;;;;;;34.90;21.45;;;;;;;;;;5021217;28;20844;-65
2021/06/30 06:12:44;;;;;;;32.70;20.58;;;;;;;;;;5010724;28;20191;-66
2021/06/30 06:15:10;;;;;;;37.85;21.33;;;;;;;;;;5016721;28;20194;-65
2021/06/30 06:17:36;;;;;;;41.05;21.40;;;;;;;;;;5016222;28;20182;-65
2021/06/30 06:20:04;;;;;;;35.30;20.75;;;;;;;;;;5011697;28;20205;-65
2021/06/30 06:22:29;;;;;;;31.85;20.60;;;;;;;;;;5005210;28;20194;-65
2021/06/30 06:24:55;;;;;;;35.88;21.42;;;;;;;;;;5013441;28;20636;-66
2021/06/30 06:27:22;;;;;;;37.42;22.17;;;;;;;;;;5018147;28;20194;-66
2021/06/30 06:29:50;;;;;;;34.45;21.20;;;;;;;;;;4994053;28;20276;-66
2021/06/30 06:32:18;;;;;;;35.17;21.35;;;;;;;;;;5005875;28;20229;-66
2021/06/30 06:34:43;;;;;;;35.92;20.55;;;;;;;;;;4995802;28;20276;-66
2021/06/30 06:37:12;;;;;;;35.45;21.30;;;;;;;;;;5023665;28;20760;-66
2021/06/30 06:39:38;;;;;;;31.98;20.42;;;;;;;;;;5016372;28;20658;-66
2021/06/30 06:42:06;;;;;;;35.75;21.45;;;;;;;;;;5020177;28;20209;-66
2021/06/30 06:44:36;;;;;;;26.85;18.58;;;;;;;;;;5010230;28;20221;-66
2021/06/30 06:47:02;;;;;;;34.22;19.20;;;;;;;;;;5021253;28;20194;-66
2021/06/30 06:49:27;;;;;;;32.15;19.42;;;;;;;;;;5014089;28;20181;-66
2021/06/30 06:51:53;;;;;;;29.80;19.52;;;;;;;;;;5021274;28;20195;-66
2021/06/30 06:54:18;;;;;;;33.72;19.65;;;;;;;;;;5022652;28;20637;-65
2021/06/30 06:56:44;;;;;;;31.67;20.83;;;;;;;;;;4327693;28;10000875;-65
2021/06/30 06:59:09;;;;;;;30.85;19.50;;;;;;;;;;5017526;28;20190;-65
2021/06/30 07:01:34;;;;;;;28.60;19.27;;;;;;;;;;5008077;28;20217;-66
2021/06/30 07:04:00;;;;;;;31.60;19.27;;;;;;;;;;5014139;28;20202;-66
2021/06/30 07:06:25;;;;;;;34.42;20.33;;;;;;;;;;5007693;28;20570;-67
2021/06/30 07:08:51;;;;;;;32.72;19.33;;;;;;;;;;5016157;28;20187;-67
2021/06/30 07:11:16;;;;;;;31.83;19.02;;;;;;;;;;5007221;28;20186;-66
2021/06/30 07:13:41;;;;;;;31.30;19.17;;;;;;;;;;5020770;28;20589;-66
2021/06/30 07:16:08;;;;;;;33.28;19.25;;;;;;;;;;5006205;28;20198;-67
2021/06/30 07:18:34;;;;;;;25.95;17.77;;;;;;;;;;5021467;28;20193;-67
2021/06/30 07:21:01;;;;;;;27.73;17.50;;;;;;;;;;5009362;28;20186;-66
2021/06/30 07:23:27;;;;;;;25.85;17.38;;;;;;;;;;5017124;28;20471;-66
2021/06/30 07:25:53;;;;;;;26.05;16.90;;;;;;;;;;5018331;28;20229;-66
2021/06/30 07:28:19;;;;;;;28.25;18.27;;;;;;;;;;5009624;28;20187;-66
2021/06/30 07:30:44;;;;;;;26.85;16.30;;;;;;;;;;5017804;28;20194;-66
2021/06/30 07:33:10;;;;;;;27.38;17.27;;;;;;;;;;5013097;28;20198;-66
2021/06/30 07:35:35;;;;;;;28.20;18.27;;;;;;;;;;5019959;28;20548;-66
2021/06/30 07:38:00;;;;;;;26.00;16.38;;;;;;;;;;5002644;28;20218;-66
2021/06/30 07:40:26;;;;;;;22.30;16.15;;;;;;;;;;5018151;28;20185;-66
2021/06/30 07:42:51;;;;;;;24.58;16.23;;;;;;;;;;5009631;28;20197;-66
2021/06/30 07:45:17;;;;;;;26.77;16.42;;;;;;;;;;5019186;28;20280;-66
2021/06/30 07:47:42;;;;;;;23.27;15.95;;;;;;;;;;5002886;28;20525;-66
2021/06/30 07:50:09;;;;;;;22.08;15.13;;;;;;;;;;5013321;28;20186;-66
2021/06/30 07:52:34;;;;;;;20.50;14.63;;;;;;;;;;5012669;28;20482;-66
2021/06/30 07:55:00;;;;;;;21.30;14.75;;;;;;;;;;5011813;28;20216;-66
2021/06/30 07:57:25;;;;;;;22.45;14.00;;;;;;;;;;5015951;28;20178;-66
2021/06/30 07:59:51;;;;;;;21.95;14.98;;;;;;;;;;5005906;28;20645;-66
2021/06/30 08:02:16;;;;;;;22.83;14.55;;;;;;;;;;5014269;28;20240;-66
2021/06/30 08:04:42;;;;;;;25.48;16.63;;;;;;;;;;5008746;28;20312;-66
2021/06/30 08:07:08;;;;;;;22.77;14.55;;;;;;;;;;5015652;28;20186;-66
2021/06/30 08:09:34;;;;;;;21.98;15.25;;;;;;;;;;5008877;28;20623;-66
2021/06/30 08:12:05;;;;;;;23.27;14.60;;;;;;;;;;5019058;28;20173;-66
2021/06/30 08:14:31;;;;;;;24.52;14.90;;;;;;;;;;5004821;28;20558;-66
2021/06/30 08:16:57;;;;;;;24.10;15.48;;;;;;;;;;5010668;28;20193;-66
2021/06/30 08:19:22;;;;;;;23.23;15.68;;;;;;;;;;5001419;28;20186;-66
2021/06/30 08:21:48;;;;;;;20.35;15.02;;;;;;;;;;5015920;28;20672;-66
2021/06/30 08:24:13;;;;;;;21.65;14.40;;;;;;;;;;5011685;28;20333;-66
2021/06/30 08:26:39;;;;;;;21.00;14.35;;;;;;;;;;5008482;28;20174;-66
2021/06/30 08:29:04;;;;;;;18.00;13.45;;;;;;;;;;5016370;28;20196;-66
2021/06/30 08:31:30;;;;;;;20.63;13.30;;;;;;;;;;5006418;28;20699;-66
2021/06/30 08:33:55;;;;;;;16.83;12.98;;;;;;;;;;5016808;28;20196;-65
2021/06/30 08:36:21;;;;;;;21.45;13.85;;;;;;;;;;5008955;28;20208;-65
2021/06/30 08:38:47;;;;;;;18.08;12.63;;;;;;;;;;5020580;28;20186;-65
2021/06/30 08:41:12;;;;;;;18.33;12.93;;;;;;;;;;5006852;28;20183;-65
2021/06/30 08:43:38;;;;;;;17.30;12.57;;;;;;;;;;5021237;28;20190;-65
2021/06/30 08:46:07;;;;;;;17.92;13.13;;;;;;;;;;5007222;28;20244;-65
2021/06/30 08:48:33;;;;;;;17.20;13.10;;;;;;;;;;5020859;28;20370;-67
2021/06/30 08:51:01;;;;;;;21.33;13.23;;;;;;;;;;5009287;28;20297;-66
2021/06/30 08:53:28;;;;;;;20.55;13.88;;;;;;;;;;5013952;28;20444;-67
2021/06/30 08:55:54;;;;;;;18.90;13.75;;;;;;;;;;5011256;28;20171;-66
2021/06/30 08:58:19;;;;;;;20.13;13.20;;;;;;;;;;5014517;28;20198;-66
2021/06/30 09:00:45;;;;;;;18.52;13.48;;;;;;;;;;5017216;28;20958;-66
2021/06/30 09:03:18;;;;;;;20.45;13.65;;;;;;;;;;5008440;28;20287;-66
2021/06/30 09:08:43;;;;;;;20.10;13.77;;;;;;;;;;5007737;28;20551;-66
2021/06/30 09:11:12;;;;;;;18.02;12.27;;;;;;;;;;5016481;28;20555;-66
2021/06/30 09:13:37;;;;;;;16.23;11.88;;;;;;;;;;5011254;28;20610;-66
2021/06/30 09:16:03;;;;;;;16.45;12.30;;;;;;;;;;5017320;28;20261;-66
2021/06/30 09:18:34;;;;;;;17.92;12.68;;;;;;;;;;5010354;28;20198;-66
2021/06/30 09:21:25;;;;;;;19.88;12.35;;;;;;;;;;5001572;28;20235;-66
2021/06/30 09:23:59;;;;;;;17.08;12.68;;;;;;;;;;5007120;28;20222;-66
2021/06/30 09:26:32;;;;;;;17.45;11.80;;;;;;;;;;5012236;28;20186;-66
2021/06/30 09:29:10;;;;;;;19.15;12.98;;;;;;;;;;5010388;28;20205;-67
2021/06/30 09:31:37;;;;;;;17.50;13.38;;;;;;;;;;5015686;28;20220;-67
2021/06/30 09:34:04;;;;;;;19.05;12.43;;;;;;;;;;5008069;28;20189;-68
2021/06/30 09:37:00;;;;;;;17.98;13.32;;;;;;;;;;5013217;28;20193;-66
2021/06/30 09:39:26;;;;;;;17.77;13.48;;;;;;;;;;5010741;28;20194;-66
2021/06/30 09:42:02;;;;;;;16.98;12.07;;;;;;;;;;5022644;28;20175;-68
2021/06/30 09:44:28;;;;;;;14.38;10.63;;;;;;;;;;5010103;28;20574;-67
2021/06/30 09:46:55;;;;;;;14.80;11.20;;;;;;;;;;5019785;28;20183;-67
2021/06/30 09:49:21;;;;;;;15.80;11.13;;;;;;;;;;5016694;28;20194;-68
2021/06/30 09:52:09;;;;;;;13.98;11.07;;;;;;;;;;5006592;28;20178;-67
2021/06/30 09:54:37;;;;;;;15.65;10.65;;;;;;;;;;5010595;28;20182;-67
2021/06/30 09:57:11;;;;;;;11.93;9.07;;;;;;;;;;5018535;28;20624;-67
2021/06/30 09:59:39;;;;;;;13.35;9.48;;;;;;;;;;5009277;28;20201;-66
2021/06/30 10:02:04;;;;;;;11.93;9.65;;;;;;;;;;5020241;28;20593;-66
2021/06/30 10:04:34;;;;;;;16.23;10.27;;;;;;;;;;5016436;28;20224;-67
2021/06/30 10:07:10;;;;;;;15.02;10.25;;;;;;;;;;5017400;28;20243;-66
2021/06/30 10:09:36;;;;;;;12.23;9.63;;;;;;;;;;5002311;28;20190;-67
2021/06/30 10:12:08;;;;;;;12.07;9.88;;;;;;;;;;5021514;28;20186;-67
2021/06/30 10:14:34;;;;;;;13.50;10.98;;;;;;;;;;5018736;28;20183;-67
2021/06/30 10:17:00;;;;;;;12.82;10.55;;;;;;;;;;5011981;28;20529;-69
2021/06/30 10:19:26;;;;;;;14.43;10.88;;;;;;;;;;5022778;28;20248;-67
2021/06/30 10:21:52;;;;;;;14.15;11.57;;;;;;;;;;5014847;28;20191;-67
2021/06/30 10:24:18;;;;;;;14.18;10.95;;;;;;;;;;5021659;28;20217;-67
2021/06/30 10:26:44;;;;;;;14.43;11.13;;;;;;;;;;5014568;28;20715;-67
2021/06/30 10:29:11;;;;;;;18.63;11.85;;;;;;;;;;4990133;28;20193;-67
2021/06/30 10:31:38;;;;;;;15.07;10.95;;;;;;;;;;5016982;28;20182;-67
2021/06/30 10:34:06;;;;;;;17.58;11.88;;;;;;;;;;5005835;28;20249;-66
2021/06/30 10:36:46;;;;;;;15.13;11.70;;;;;;;;;;5009953;28;20190;-67
2021/06/30 10:39:13;;;;;;;16.75;12.00;;;;;;;;;;5020605;28;20194;-67
2021/06/30 10:41:55;;;;;;;15.05;11.05;;;;;;;;;;5014288;28;20186;-67
2021/06/30 10:44:22;;;;;;;16.13;12.30;;;;;;;;;;5019484;28;20210;-67
2021/06/30 10:46:48;;;;;;;14.02;11.02;;;;;;;;;;5029251;28;20237;-67
2021/06/30 10:49:14;;;;;;;15.13;10.77;;;;;;;;;;5042497;28;20246;-66
2021/06/30 10:52:00;;;;;;;15.32;10.77;;;;;;;;;;5033595;28;20637;-66
2021/06/30 10:54:31;;;;;;;16.83;11.10;;;;;;;;;;5042812;28;20247;-68
2021/06/30 10:57:23;;;;;;;14.77;11.57;;;;;;;;;;5036341;28;20269;-67
2021/06/30 10:59:58;;;;;;;16.60;12.05;;;;;;;;;;5024972;28;20213;-67
2021/06/30 11:02:24;;;;;;;14.80;11.43;;;;;;;;;;5025799;28;20189;-67
2021/06/30 11:04:50;;;;;;;17.77;12.02;;;;;;;;;;5040833;28;20272;-67
2021/06/30 11:07:32;;;;;;;15.93;11.88;;;;;;;;;;5046193;28;20185;-66
2021/06/30 11:09:57;;;;;;;18.15;13.27;;;;;;;;;;5041247;28;20697;-66
2021/06/30 11:12:58;;;;;;;17.42;12.70;;;;;;;;;;5029025;28;20648;-66
2021/06/30 11:15:36;;;;;;;17.67;13.27;;;;;;;;;;5037694;28;20193;-66
2021/06/30 11:18:25;;;;;;;22.02;14.45;;;;;;;;;;5044277;28;20243;-66
2021/06/30 11:20:52;;;;;;;22.60;14.63;;;;;;;;;;5040587;28;20193;-66
2021/06/30 11:23:26;;;;;;;23.52;15.00;;;;;;;;;;5034627;28;20189;-66
2021/06/30 11:25:56;;;;;;;21.23;14.80;;;;;;;;;;5043459;28;20268;-66
2021/06/30 11:28:33;;;;;;;24.48;15.20;;;;;;;;;;5040744;28;20636;-66
2021/06/30 11:30:59;;;;;;;25.90;16.80;;;;;;;;;;5040668;28;20588;-67
2021/06/30 11:33:25;;;;;;;24.52;16.85;;;;;;;;;;5043129;28;20323;-67
2021/06/30 11:35:51;;;;;;;23.95;16.30;;;;;;;;;;5031332;28;20268;-67
2021/06/30 11:38:26;;;;;;;27.88;16.50;;;;;;;;;;5042994;28;20185;-68
2021/06/30 11:41:08;;;;;;;29.92;16.48;;;;;;;;;;5030943;28;20189;-67
2021/06/30 11:43:40;;;;;;;21.25;16.50;;;;;;;;;;5044034;28;20186;-67
2021/06/30 11:46:06;;;;;;;24.67;17.30;;;;;;;;;;5014592;28;20709;-68
2021/06/30 11:48:32;;;;;;;26.85;15.60;;;;;;;;;;5024710;28;20186;-66
2021/06/30 11:51:07;;;;;;;24.10;16.88;;;;;;;;;;5015695;28;20209;-66
2021/06/30 11:53:43;;;;;;;28.88;17.27;;;;;;;;;;5002275;28;20603;-66
2021/06/30 11:56:14;;;;;;;24.40;17.75;;;;;;;;;;5012370;28;20537;-68
2021/06/30 11:58:46;;;;;;;25.80;18.20;;;;;;;;;;5009473;28;20620;-67
2021/06/30 12:01:37;;;;;;;28.25;18.38;;;;;;;;;;5006438;28;20568;-66
2021/06/30 12:04:08;;;;;;;28.00;17.95;;;;;;;;;;5014027;28;20252;-67
2021/06/30 12:06:33;;;;;;;30.08;18.25;;;;;;;;;;5013545;28;20198;-69
2021/06/30 12:09:11;;;;;;;30.30;17.85;;;;;;;;;;5004364;28;20217;-67
2021/06/30 12:11:44;;;;;;;24.73;18.52;;;;;;;;;;5009897;28;20636;-67
2021/06/30 12:14:16;;;;;;;24.65;17.70;;;;;;;;;;5019445;28;20198;-67
2021/06/30 12:16:56;;;;;;;32.97;18.77;;;;;;;;;;5007592;28;20194;-67
2021/06/30 12:19:31;;;;;;;27.63;17.23;;;;;;;;;;5021727;28;20186;-67
2021/06/30 12:21:56;;;;;;;23.83;17.73;;;;;;;;;;5014384;28;20196;-67
2021/06/30 12:24:23;;;;;;;23.58;16.48;;;;;;;;;;5022713;28;20206;-67
2021/06/30 12:27:07;;;;;;;23.85;16.00;;;;;;;;;;5010327;28;20617;-68
2021/06/30 12:29:35;;;;;;;21.95;16.10;;;;;;;;;;4326577;28;10000696;-67
2021/06/30 12:32:03;;;;;;;22.13;16.65;;;;;;;;;;5007341;28;20190;-66
2021/06/30 12:34:28;;;;;;;23.20;16.75;;;;;;;;;;5021717;28;20193;-66
2021/06/30 12:36:54;;;;;;;23.27;17.02;;;;;;;;;;5020372;28;20191;-67
2021/06/30 12:39:25;;;;;;;24.50;17.73;;;;;;;;;;5014912;28;20233;-66
2021/06/30 12:41:55;;;;;;;27.25;18.25;;;;;;;;;;5017466;28;20685;-66
2021/06/30 12:44:21;;;;;;;26.00;18.27;;;;;;;;;;5011853;28;20206;-67
2021/06/30 12:46:47;;;;;;;30.23;19.10;;;;;;;;;;5026357;28;20253;-66
2021/06/30 12:49:17;;;;;;;28.77;17.63;;;;;;;;;;5011301;28;20224;-66
2021/06/30 12:51:44;;;;;;;25.85;17.55;;;;;;;;;;5019043;28;20198;-66
2021/06/30 12:54:10;;;;;;;23.20;16.58;;;;;;;;;;5011603;28;20219;-66
2021/06/30 12:56:42;;;;;;;24.38;16.48;;;;;;;;;;5024924;28;20174;-67
2021/06/30 12:59:15;;;;;;;28.35;17.08;;;;;;;;;;5012314;28;20205;-66
2021/06/30 13:01:41;;;;;;;31.38;17.83;;;;;;;;;;5016468;28;20241;-66
2021/06/30 13:04:09;;;;;;;75.03;23.35;;;;;;;;;;4994170;28;20195;-66
2021/06/30 13:06:36;;;;;;;21.92;16.65;;;;;;;;;;5019677;28;20685;-67
2021/06/30 13:09:10;;;;;;;28.83;15.73;;;;;;;;;;5010376;28;20193;-66
2021/06/30 13:11:42;;;;;;;29.17;16.85;;;;;;;;;;5019677;28;20284;-66
2021/06/30 13:14:17;;;;;;;28.10;16.15;;;;;;;;;;5010372;28;20214;-67
2021/06/30 13:16:58;;;;;;;23.90;15.25;;;;;;;;;;5018725;28;20174;-66
2021/06/30 13:19:26;;;;;;;21.50;14.70;;;;;;;;;;5011861;28;20178;-67
2021/06/30 13:21:57;;;;;;;23.77;16.40;;;;;;;;;;5024646;28;20687;-67
2021/06/30 13:24:34;;;;;;;24.85;15.77;;;;;;;;;;5015787;28;20210;-66
2021/06/30 13:36:03;;;;;;;26.58;15.40;;;;;;;;;;5014014;28;20291;-68
2021/06/30 13:38:31;;;;;;;23.00;12.43;;;;;;;;;;5024989;28;20193;-68
2021/06/30 13:40:59;;;;;;;21.52;12.68;;;;;;;;;;5013450;28;20201;-68
2021/06/30 13:43:25;;;;;;;42.33;16.48;;;;;;;;;;5025712;28;20209;-68
2021/06/30 13:45:58;;;;;;;16.85;13.40;;;;;;;;;;5021187;28;20645;-68
2021/06/30 13:48:25;;;;;;;18.33;13.27;;;;;;;;;;5043155;28;20189;-68
2021/06/30 13:50:55;;;;;;;19.60;13.93;;;;;;;;;;5035035;28;20189;-69
2021/06/30 13:53:22;;;;;;;23.77;15.82;;;;;;;;;;5041283;28;20276;-66
2021/06/30 13:55:48;;;;;;;21.05;15.63;;;;;;;;;;4343353;28;10000840;-67
2021/06/30 13:58:14;;;;;;;26.70;16.15;;;;;;;;;;5028325;28;20346;-67
2021/06/30 14:00:40;;;;;;;29.58;17.73;;;;;;;;;;5044332;28;20288;-67
2021/06/30 14:03:06;;;;;;;25.15;17.25;;;;;;;;;;5031452;28;20302;-67
2021/06/30 14:05:33;;;;;;;30.40;17.98;;;;;;;;;;5040500;28;20263;-67
2021/06/30 14:07:59;;;;;;;26.92;16.73;;;;;;;;;;5032466;28;20199;-68
2021/06/30 14:10:26;;;;;;;29.52;17.15;;;;;;;;;;5038174;28;20676;-67
2021/06/30 14:12:51;;;;;;;28.95;16.88;;;;;;;;;;5030605;28;20212;-68
2021/06/30 14:15:17;;;;;;;25.77;15.65;;;;;;;;;;5039237;28;20177;-69
2021/06/30 14:17:43;;;;;;;26.13;15.95;;;;;;;;;;5033758;28;20204;-68
2021/06/30 14:20:11;;;;;;;33.67;15.20;;;;;;;;;;5040769;28;20192;-67
2021/06/30 14:22:39;;;;;;;26.88;16.63;;;;;;;;;;5033016;28;20198;-69
2021/06/30 14:25:06;;;;;;;24.17;15.60;;;;;;;;;;5037924;28;20205;-68
2021/06/30 14:27:32;;;;;;;22.77;15.00;;;;;;;;;;5033665;28;20605;-69
2021/06/30 14:30:00;;;;;;;25.70;15.50;;;;;;;;;;5041213;28;20668;-67
2021/06/30 14:32:27;;;;;;;20.02;14.70;;;;;;;;;;5041348;28;20196;-67
2021/06/30 14:34:54;;;;;;;23.92;16.20;;;;;;;;;;5032633;28;20177;-68